createdAt,value
2017-06-15T00:01:25.055Z,7.03
2017-06-15T00:03:59.188Z,7.07
2017-06-15T00:06:33.283Z,7.87
2017-06-15T00:09:07.330Z,7.47
2017-06-15T00:11:41.533Z,5.87
2017-06-15T00:14:15.670Z,5.60
2017-06-15T00:16:49.770Z,6.23
2017-06-15T00:19:23.936Z,5.97
2017-06-15T00:21:58.024Z,5.93
2017-06-15T00:24:32.180Z,5.77
2017-06-15T00:27:06.433Z,5.70
2017-06-15T00:29:40.687Z,5.07
2017-06-15T00:32:14.930Z,5.57
2017-06-15T00:34:49.051Z,5.80
2017-06-15T00:37:23.089Z,6.50
2017-06-15T00:39:57.188Z,6.73
2017-06-15T00:42:31.342Z,6.10
2017-06-15T00:45:05.423Z,6.10
2017-06-15T00:47:39.596Z,6.87
2017-06-15T00:50:13.860Z,4.97
2017-06-15T00:52:47.875Z,7.20
2017-06-15T00:55:21.944Z,7.87
2017-06-15T00:57:56.140Z,6.10
2017-06-15T01:00:30.333Z,6.20
2017-06-15T01:03:04.433Z,6.70
2017-06-15T01:05:38.512Z,6.53
2017-06-15T01:08:12.668Z,5.73
2017-06-15T01:10:46.845Z,5.27
2017-06-15T01:13:20.909Z,5.70
2017-06-15T01:15:55.084Z,5.83
2017-06-15T01:18:29.393Z,5.13
2017-06-15T01:21:03.495Z,5.93
2017-06-15T01:23:37.527Z,6.10
2017-06-15T01:26:11.624Z,5.97
2017-06-15T01:28:45.781Z,6.87
2017-06-15T01:31:19.814Z,7.23
2017-06-15T01:33:54.012Z,8.53
2017-06-15T01:36:28.076Z,6.97
2017-06-15T01:39:02.227Z,7.10
2017-06-15T01:41:36.518Z,7.87
2017-06-15T01:44:10.708Z,9.03
2017-06-15T01:46:44.925Z,14.13
2017-06-15T01:49:19.125Z,8.87
2017-06-15T01:51:53.382Z,6.20
2017-06-15T01:54:27.442Z,7.10
2017-06-15T01:57:01.679Z,10.13
2017-06-15T01:59:35.909Z,7.53
2017-06-15T02:02:09.989Z,7.20
2017-06-15T02:04:44.166Z,6.30
2017-06-15T02:07:18.356Z,6.10
2017-06-15T02:09:52.657Z,6.80
2017-06-15T02:12:26.807Z,6.30
2017-06-15T02:15:00.891Z,7.00
2017-06-15T02:17:35.354Z,8.53
2017-06-15T02:20:09.480Z,8.57
2017-06-15T02:22:43.717Z,6.93
2017-06-15T02:25:17.928Z,8.50
2017-06-15T02:27:52.158Z,6.60
2017-06-15T02:30:26.303Z,7.63
2017-06-15T02:33:00.510Z,7.67
2017-06-15T02:35:34.504Z,6.57
2017-06-15T02:38:09.121Z,7.37
2017-06-15T02:40:43.339Z,7.40
2017-06-15T02:43:17.395Z,7.93
2017-06-15T02:45:51.548Z,7.80
2017-06-15T02:48:25.635Z,7.20
2017-06-15T02:50:59.923Z,6.43
2017-06-15T02:53:34.008Z,6.60
2017-06-15T02:56:08.065Z,7.53
2017-06-15T02:58:42.237Z,7.30
2017-06-15T03:01:16.306Z,8.23
2017-06-15T03:03:50.400Z,6.63
2017-06-15T03:06:24.579Z,6.50
2017-06-15T03:08:58.751Z,6.27
2017-06-15T03:11:33.004Z,6.67
2017-06-15T03:14:07.069Z,6.70
2017-06-15T03:16:41.206Z,6.80
2017-06-15T03:19:15.472Z,7.20
2017-06-15T03:21:49.488Z,7.30
2017-06-15T03:24:23.727Z,8.50
2017-06-15T03:26:57.842Z,7.70
2017-06-15T03:29:32.008Z,8.60
2017-06-15T03:32:06.146Z,8.10
2017-06-15T03:34:40.347Z,6.77
2017-06-15T03:37:14.441Z,7.70
2017-06-15T03:39:48.601Z,6.97
2017-06-15T03:42:22.617Z,9.33
2017-06-15T03:44:56.799Z,10.13
2017-06-15T03:47:31.080Z,7.30
2017-06-15T03:50:05.301Z,7.90
2017-06-15T03:52:39.432Z,8.80
2017-06-15T03:55:13.520Z,6.60
2017-06-15T03:57:47.660Z,8.73
2017-06-15T04:00:21.787Z,9.30
2017-06-15T04:02:55.909Z,7.37
2017-06-15T04:05:30.048Z,9.93
2017-06-15T04:08:04.141Z,7.10
2017-06-15T04:10:38.315Z,8.00
2017-06-15T04:13:12.336Z,11.30
2017-06-15T04:15:46.474Z,11.13
2017-06-15T04:18:20.514Z,9.13
2017-06-15T04:20:54.575Z,9.37
2017-06-15T04:23:28.758Z,11.30
2017-06-15T04:26:02.842Z,9.60
2017-06-15T04:28:37.033Z,10.47
2017-06-15T04:31:11.108Z,10.30
2017-06-15T04:33:45.249Z,10.83
2017-06-15T04:36:19.461Z,10.30
2017-06-15T04:38:53.704Z,10.43
2017-06-15T04:41:27.866Z,9.50
2017-06-15T04:44:02.081Z,9.37
2017-06-15T04:46:36.253Z,9.40
2017-06-15T04:49:10.308Z,11.50
2017-06-15T04:51:44.385Z,7.97
2017-06-15T04:54:18.675Z,9.40
2017-06-15T04:56:52.810Z,9.20
2017-06-15T04:59:26.893Z,10.87
2017-06-15T05:02:01.050Z,12.20
2017-06-15T05:04:35.198Z,8.93
2017-06-15T05:07:09.400Z,7.83
2017-06-15T05:09:43.549Z,8.57
2017-06-15T05:12:17.709Z,8.37
2017-06-15T05:14:51.900Z,7.60
2017-06-15T05:17:25.912Z,7.33
2017-06-15T05:20:00.091Z,8.03
2017-06-15T05:22:34.228Z,6.90
2017-06-15T05:25:08.396Z,6.43
2017-06-15T05:27:42.588Z,8.20
2017-06-15T05:30:16.715Z,7.70
2017-06-15T05:32:50.864Z,7.33
2017-06-15T05:35:25.062Z,7.90
2017-06-15T05:37:59.857Z,8.50
2017-06-15T05:40:33.900Z,7.97
2017-06-15T05:43:08.052Z,6.63
2017-06-15T05:45:42.259Z,8.50
2017-06-15T05:48:16.494Z,6.73
2017-06-15T05:50:50.590Z,6.50
2017-06-15T05:53:24.673Z,6.53
2017-06-15T05:55:58.916Z,5.33
2017-06-15T05:58:33.044Z,9.53
2017-06-15T06:01:07.132Z,9.13
2017-06-15T06:03:41.233Z,5.47
2017-06-15T06:06:15.403Z,9.73
2017-06-15T06:08:49.568Z,6.00
2017-06-15T06:11:23.630Z,5.43
2017-06-15T06:13:57.809Z,5.30
2017-06-15T06:16:32.011Z,5.40
2017-06-15T06:19:06.068Z,5.37
2017-06-15T06:21:40.253Z,5.40
2017-06-15T06:24:14.284Z,5.60
2017-06-15T06:26:48.422Z,5.80
2017-06-15T06:29:22.489Z,5.80
2017-06-15T06:31:56.709Z,5.70
2017-06-15T06:34:30.786Z,6.17
2017-06-15T06:37:04.993Z,4.90
2017-06-15T06:39:39.204Z,6.10
2017-06-15T06:42:13.420Z,5.80
2017-06-15T06:44:47.608Z,5.40
2017-06-15T06:47:21.729Z,4.80
2017-06-15T06:49:56.046Z,4.70
2017-06-15T06:52:30.244Z,5.60
2017-06-15T06:55:04.343Z,5.30
2017-06-15T06:57:38.690Z,5.10
2017-06-15T07:00:12.696Z,4.60
2017-06-15T07:02:46.901Z,5.00
2017-06-15T07:05:21.097Z,5.40
2017-06-15T07:07:55.281Z,5.10
2017-06-15T07:10:29.492Z,4.90
2017-06-15T07:13:03.690Z,5.00
2017-06-15T07:15:37.746Z,5.70
2017-06-15T07:18:12.110Z,4.97
2017-06-15T07:20:46.186Z,5.37
2017-06-15T07:23:20.350Z,5.20
2017-06-15T07:25:54.514Z,4.70
2017-06-15T07:28:28.566Z,5.20
2017-06-15T07:31:02.709Z,4.77
2017-06-15T07:33:36.857Z,6.00
2017-06-15T07:36:11.044Z,4.73
2017-06-15T07:38:45.198Z,5.50
2017-06-15T07:41:19.391Z,5.00
2017-06-15T07:43:53.651Z,7.27
2017-06-15T07:46:27.723Z,5.03
2017-06-15T07:49:01.947Z,4.53
2017-06-15T07:51:35.978Z,4.90
2017-06-15T07:54:10.250Z,4.93
2017-06-15T07:56:44.481Z,5.00
2017-06-15T07:59:18.617Z,5.17
2017-06-15T08:01:52.920Z,5.27
2017-06-15T08:04:27.874Z,6.20
2017-06-15T08:07:02.758Z,5.83
2017-06-15T08:09:37.244Z,4.87
2017-06-15T08:12:11.420Z,9.33
2017-06-15T08:14:45.673Z,4.73
2017-06-15T08:17:19.746Z,4.67
2017-06-15T08:19:54.011Z,4.90
2017-06-15T08:22:27.975Z,8.83
2017-06-15T08:25:02.179Z,5.57
2017-06-15T08:27:36.188Z,4.77
2017-06-15T08:30:10.242Z,5.00
2017-06-15T08:32:44.493Z,4.77
2017-06-15T08:35:18.629Z,4.60
2017-06-15T08:37:54.330Z,4.40
2017-06-15T08:40:28.403Z,4.43
2017-06-15T08:43:02.655Z,4.50
2017-06-15T08:45:36.848Z,4.50
2017-06-15T08:48:10.901Z,5.33
2017-06-15T08:50:44.946Z,4.57
2017-06-15T08:53:18.921Z,4.80
2017-06-15T08:55:53.320Z,4.80
2017-06-15T08:58:27.556Z,3.90
2017-06-15T09:01:01.746Z,4.40
2017-06-15T09:03:35.979Z,4.93
2017-06-15T09:06:10.060Z,4.80
2017-06-15T09:08:44.185Z,5.27
2017-06-15T09:11:18.529Z,4.03
2017-06-15T09:13:52.760Z,4.80
2017-06-15T09:16:26.956Z,5.97
2017-06-15T09:19:01.125Z,4.30
2017-06-15T09:21:35.136Z,4.23
2017-06-15T09:24:09.429Z,4.67
2017-06-15T09:26:43.637Z,4.53
2017-06-15T09:29:17.797Z,6.03
2017-06-15T09:31:52.030Z,4.80
2017-06-15T09:34:26.111Z,4.57
2017-06-15T09:37:00.133Z,4.67
2017-06-15T09:39:34.320Z,5.33
2017-06-15T09:42:08.480Z,7.00
2017-06-15T09:44:42.671Z,5.03
2017-06-15T09:47:16.800Z,4.37
2017-06-15T09:49:51.009Z,5.77
2017-06-15T09:52:25.017Z,5.13
2017-06-15T09:54:59.063Z,5.10
2017-06-15T09:57:33.273Z,4.93
2017-06-15T10:00:07.300Z,5.43
2017-06-15T10:02:41.563Z,4.87
2017-06-15T10:05:15.857Z,5.30
2017-06-15T10:07:49.987Z,5.20
2017-06-15T10:10:24.050Z,5.43
2017-06-15T10:12:58.277Z,5.20
2017-06-15T10:15:32.572Z,4.90
2017-06-15T10:18:06.896Z,5.30
2017-06-15T10:20:41.074Z,6.50
2017-06-15T10:23:15.156Z,5.20
2017-06-15T10:25:49.354Z,5.43
2017-06-15T10:28:23.545Z,5.70
2017-06-15T10:30:57.684Z,5.00
2017-06-15T10:33:31.994Z,4.63
2017-06-15T10:36:06.145Z,5.40
2017-06-15T10:38:40.365Z,5.47
2017-06-15T10:41:14.428Z,5.23
2017-06-15T10:43:48.655Z,5.60
2017-06-15T10:46:22.834Z,5.10
2017-06-15T10:48:56.987Z,5.23
2017-06-15T10:51:31.102Z,5.20
2017-06-15T10:54:05.101Z,5.40
2017-06-15T10:56:39.303Z,5.27
2017-06-15T10:59:13.340Z,6.23
2017-06-15T11:01:47.512Z,5.57
2017-06-15T11:04:21.537Z,6.00
2017-06-15T11:06:55.569Z,5.60
2017-06-15T11:09:29.612Z,6.00
2017-06-15T11:12:03.781Z,5.67
2017-06-15T11:14:38.099Z,14.73
2017-06-15T11:17:12.132Z,5.67
2017-06-15T11:19:46.308Z,6.20
2017-06-15T11:22:20.518Z,6.03
2017-06-15T11:24:54.933Z,6.53
2017-06-15T11:27:28.985Z,7.30
2017-06-15T11:30:03.017Z,6.50
2017-06-15T11:32:37.198Z,6.40
2017-06-15T11:35:11.372Z,6.00
2017-06-15T11:37:45.548Z,5.53
2017-06-15T11:40:19.761Z,6.40
2017-06-15T11:42:54.008Z,6.00
2017-06-15T11:45:28.240Z,6.13
2017-06-15T11:48:02.293Z,6.60
2017-06-15T11:50:36.499Z,6.33
2017-06-15T11:53:10.553Z,6.53
2017-06-15T11:55:44.742Z,6.50
2017-06-15T11:58:18.985Z,6.20
2017-06-15T12:00:53.158Z,6.73
2017-06-15T12:03:27.192Z,6.10
2017-06-15T12:06:01.204Z,6.03
2017-06-15T12:08:35.389Z,6.20
2017-06-15T12:11:09.620Z,6.70
2017-06-15T12:13:43.816Z,7.60
2017-06-15T12:16:17.910Z,6.40
2017-06-15T12:18:52.084Z,6.23
2017-06-15T12:21:26.269Z,6.10
2017-06-15T12:24:00.461Z,6.00
2017-06-15T12:26:34.625Z,6.70
2017-06-15T12:29:08.856Z,5.97
2017-06-15T12:31:42.908Z,5.93
2017-06-15T12:34:17.109Z,6.13
2017-06-15T12:36:51.300Z,6.87
2017-06-15T12:39:25.376Z,6.33
2017-06-15T12:41:59.749Z,6.87
2017-06-15T12:44:33.923Z,13.83
2017-06-15T12:47:26.823Z,6.77
2017-06-15T12:50:00.982Z,6.40
2017-06-15T12:52:35.192Z,6.40
2017-06-15T12:55:09.429Z,6.00
2017-06-15T12:57:43.577Z,6.00
2017-06-15T13:00:17.704Z,6.17
2017-06-15T13:12:37.756Z,6.23
2017-06-15T13:15:17.470Z,6.50
2017-06-15T13:17:51.568Z,6.70
2017-06-15T13:20:25.669Z,7.00
2017-06-15T13:22:59.859Z,6.70
2017-06-15T13:28:49.133Z,6.40
2017-06-15T13:31:23.105Z,6.70
2017-06-15T13:33:57.371Z,6.40
2017-06-15T13:36:31.384Z,6.77
2017-06-15T13:39:05.461Z,6.97
2017-06-15T13:41:39.651Z,6.30
2017-06-15T13:44:13.750Z,6.93
2017-06-15T13:46:47.928Z,6.53
2017-06-15T13:49:21.965Z,6.60
2017-06-15T13:51:56.199Z,6.30
2017-06-15T13:57:44.884Z,6.17
2017-06-15T14:00:19.020Z,7.53
2017-06-15T14:02:53.224Z,6.50
2017-06-15T14:05:27.361Z,6.20
2017-06-15T14:08:01.547Z,6.40
2017-06-15T14:13:50.092Z,5.83
2017-06-15T14:16:24.146Z,5.90
2017-06-15T14:18:58.827Z,5.60
2017-06-15T14:21:32.944Z,6.00
2017-06-15T14:24:06.952Z,5.63
2017-06-15T14:29:55.752Z,5.60
2017-06-15T14:32:29.797Z,5.77
2017-06-15T14:35:03.905Z,5.63
2017-06-15T14:37:38.077Z,9.03
2017-06-15T14:40:18.997Z,5.83
2017-06-15T14:42:53.145Z,5.90
2017-06-15T14:45:27.188Z,6.10
2017-06-15T14:48:01.248Z,5.83
2017-06-15T14:50:35.333Z,5.80
2017-06-15T14:53:09.551Z,6.20
2017-06-15T14:55:43.720Z,5.90
2017-06-15T15:01:32.993Z,5.40
2017-06-15T15:04:07.082Z,5.90
2017-06-15T15:06:41.137Z,5.60
2017-06-15T15:09:21.287Z,5.47
2017-06-15T15:11:55.476Z,5.80
2017-06-15T15:14:29.493Z,6.47
2017-06-15T15:17:03.632Z,5.83
2017-06-15T15:19:37.824Z,5.90
2017-06-15T15:28:42.471Z,5.30
2017-06-15T15:31:16.706Z,5.27
2017-06-15T15:33:53.611Z,5.23
2017-06-15T15:36:27.660Z,4.90
2017-06-15T15:39:01.790Z,5.30
2017-06-15T15:41:35.899Z,5.00
2017-06-15T15:44:09.939Z,5.30
2017-06-15T15:46:44.292Z,4.90
2017-06-15T15:49:19.499Z,4.73
2017-06-15T15:51:53.847Z,5.43
2017-06-15T15:54:27.983Z,4.33
2017-06-15T15:57:02.269Z,5.23
2017-06-15T15:59:36.455Z,5.30
2017-06-15T16:08:40.764Z,4.80
2017-06-15T16:11:14.937Z,4.10
2017-06-15T16:13:49.064Z,4.13
2017-06-15T16:16:23.111Z,4.20
2017-06-15T16:18:57.247Z,3.90
2017-06-15T16:21:31.336Z,3.77
2017-06-15T16:24:12.269Z,5.10
2017-06-15T16:26:46.316Z,4.10
2017-06-15T16:29:20.472Z,4.07
2017-06-15T16:31:54.563Z,4.03
2017-06-15T16:34:28.620Z,3.97
2017-06-15T16:37:02.640Z,4.63
2017-06-15T16:39:36.878Z,4.27
2017-06-15T16:48:41.590Z,4.10
2017-06-15T16:51:15.877Z,4.20
2017-06-15T16:53:50.032Z,3.63
2017-06-15T16:56:24.124Z,6.87
2017-06-15T16:58:58.125Z,3.83
2017-06-15T17:01:32.423Z,3.30
2017-06-15T17:04:06.578Z,3.57
2017-06-15T17:06:40.682Z,3.57
2017-06-15T17:09:14.773Z,3.40
2017-06-15T17:11:48.971Z,3.30
2017-06-15T17:17:38.217Z,3.67
2017-06-15T17:20:12.480Z,3.53
2017-06-15T17:22:46.732Z,3.10
2017-06-15T17:28:35.954Z,4.20
2017-06-15T17:31:10.152Z,3.13
2017-06-15T17:33:44.178Z,4.33
2017-06-15T17:36:18.519Z,4.13
2017-06-15T17:38:52.705Z,3.97
2017-06-15T17:41:26.844Z,4.57
2017-06-15T17:44:01.081Z,3.90
2017-06-15T17:46:35.243Z,3.80
2017-06-15T17:52:24.145Z,3.60
2017-06-15T17:54:58.384Z,4.00
2017-06-15T17:57:32.444Z,4.20
2017-06-15T18:00:06.706Z,4.03
2017-06-15T18:02:40.863Z,6.37
2017-06-15T18:08:30.712Z,5.27
2017-06-15T18:11:04.949Z,5.17
2017-06-15T18:13:39.277Z,4.30
2017-06-15T18:16:13.330Z,4.40
2017-06-15T18:18:47.630Z,4.83
2017-06-15T18:24:37.076Z,4.23
2017-06-15T18:27:11.393Z,5.10
2017-06-15T18:29:45.587Z,5.03
2017-06-15T18:32:19.959Z,4.73
2017-06-15T18:38:09.267Z,5.13
2017-06-15T18:40:43.441Z,4.87
2017-06-15T18:43:17.615Z,5.03
2017-06-15T18:45:51.733Z,6.40
2017-06-15T18:48:25.787Z,4.70
2017-06-15T18:51:00.090Z,5.33
2017-06-15T18:53:34.385Z,4.13
2017-06-15T18:56:08.467Z,4.43
2017-06-15T18:58:42.645Z,4.40
2017-06-15T19:01:16.738Z,4.80
2017-06-15T19:03:51.069Z,3.90
2017-06-15T19:06:25.123Z,4.70
2017-06-15T19:08:59.357Z,3.97
2017-06-15T19:11:33.376Z,8.23
2017-06-15T19:14:07.632Z,4.13
2017-06-15T19:16:41.747Z,6.07
2017-06-15T19:19:15.978Z,4.00
2017-06-15T19:21:50.165Z,4.33
2017-06-15T19:24:24.369Z,5.07
2017-06-15T19:26:58.555Z,4.43
2017-06-15T19:29:32.624Z,3.80
2017-06-15T19:32:06.792Z,4.30
2017-06-15T19:34:40.844Z,4.87
2017-06-15T19:37:14.944Z,6.13
2017-06-15T19:39:49.192Z,5.00
2017-06-15T19:42:23.615Z,4.30
2017-06-15T19:44:57.928Z,4.80
2017-06-15T19:47:32.084Z,4.10
2017-06-15T19:50:06.307Z,4.30
2017-06-15T19:52:40.571Z,4.30
2017-06-15T19:55:14.776Z,4.27
2017-06-15T19:57:49.062Z,4.63
2017-06-15T20:00:23.312Z,4.17
2017-06-15T20:02:57.560Z,4.80
2017-06-15T20:05:31.866Z,5.10
2017-06-15T20:08:05.903Z,4.40
2017-06-15T20:10:39.951Z,15.30
2017-06-15T20:13:14.156Z,4.53
2017-06-15T20:15:48.417Z,3.63
2017-06-15T20:24:58.299Z,4.43
2017-06-15T20:27:39.553Z,4.33
2017-06-15T20:30:26.273Z,3.90
2017-06-15T20:33:05.868Z,4.27
2017-06-15T20:38:34.273Z,3.87
2017-06-15T20:41:09.323Z,4.03
2017-06-15T20:43:43.780Z,3.77
2017-06-15T20:46:18.029Z,4.53
2017-06-15T20:48:52.349Z,4.73
2017-06-15T20:51:26.792Z,4.23
2017-06-15T20:54:00.963Z,4.73
2017-06-15T20:56:44.046Z,4.03
2017-06-15T20:59:21.879Z,4.50
2017-06-15T21:01:56.418Z,3.93
2017-06-15T21:04:30.596Z,4.77
2017-06-15T21:07:04.931Z,4.23
2017-06-15T21:09:39.120Z,3.60
2017-06-15T21:12:13.292Z,8.20
2017-06-15T21:18:02.791Z,4.40
2017-06-15T21:20:37.110Z,5.00
2017-06-15T21:23:11.315Z,4.63
2017-06-15T21:25:45.439Z,5.20
2017-06-15T21:28:19.639Z,5.33
2017-06-15T21:30:53.920Z,4.57
2017-06-15T21:33:28.215Z,5.50
2017-06-15T21:36:02.544Z,5.30
2017-06-15T21:41:52.332Z,5.40
2017-06-15T21:44:26.404Z,5.30
2017-06-15T21:47:00.630Z,5.83
2017-06-15T21:49:34.892Z,6.80
2017-06-15T21:52:09.005Z,5.90
2017-06-15T21:57:58.109Z,5.40
2017-06-15T22:00:33.148Z,6.70
2017-06-15T22:03:07.291Z,6.23
2017-06-15T22:05:41.402Z,6.03
2017-06-15T22:08:15.492Z,6.00
2017-06-15T22:10:49.847Z,6.00
2017-06-15T22:13:24.114Z,7.27
2017-06-15T22:15:58.371Z,7.00
2017-06-15T22:18:32.595Z,6.77
2017-06-15T22:21:06.957Z,7.37
2017-06-15T22:23:41.092Z,7.00
2017-06-15T22:29:30.819Z,8.00
2017-06-15T22:32:05.141Z,7.73
2017-06-15T22:37:54.783Z,7.47
2017-06-15T22:40:28.976Z,7.50
2017-06-15T22:43:03.167Z,7.40
2017-06-15T22:45:37.397Z,8.33
2017-06-15T22:48:11.697Z,8.07
2017-06-15T22:50:45.901Z,8.53
2017-06-15T22:53:20.220Z,6.90
2017-06-15T22:55:54.334Z,8.60
2017-06-15T22:58:28.640Z,8.80
2017-06-15T23:01:02.804Z,8.77
2017-06-15T23:03:43.268Z,8.00
2017-06-15T23:06:17.476Z,9.10
2017-06-15T23:08:51.851Z,9.13
2017-06-15T23:14:41.208Z,9.07
2017-06-15T23:17:15.563Z,9.00
2017-06-15T23:19:49.932Z,8.70
2017-06-15T23:22:24.000Z,9.60
2017-06-15T23:28:13.515Z,11.23
2017-06-15T23:30:47.706Z,10.20
2017-06-15T23:33:21.848Z,8.20
2017-06-15T23:35:56.063Z,8.80
2017-06-15T23:38:30.276Z,9.13
2017-06-15T23:41:04.445Z,9.00
2017-06-15T23:43:38.649Z,8.80
2017-06-15T23:46:12.877Z,9.77
2017-06-15T23:48:47.125Z,8.97
2017-06-15T23:51:21.313Z,10.03
2017-06-15T23:53:55.717Z,10.30
2017-06-15T23:56:29.759Z,9.97
2017-06-15T23:59:04.169Z,9.63
